createdAt,value
2023-03-27T00:00:16.935Z,98970.63
2023-03-27T00:03:21.690Z,98962.81
2023-03-27T00:06:25.294Z,98954.03
2023-03-27T00:09:29.734Z,98956.69
2023-03-27T00:12:33.586Z,98950.59
2023-03-27T00:15:36.889Z,98950.59
2023-03-27T00:18:39.580Z,98951.41
2023-03-27T00:21:50.219Z,98948.81
2023-03-27T00:24:52.784Z,98935.78
2023-03-27T00:27:58.517Z,98927.88
2023-03-27T00:31:04.162Z,98916.56
2023-03-27T00:34:07.789Z,98912.25
2023-03-27T00:37:10.716Z,98901.84
2023-03-27T00:40:15.585Z,98895.78
2023-03-27T00:43:34.053Z,98890.59
2023-03-27T00:46:44.591Z,98889.69
2023-03-27T00:49:49.860Z,98878.41
2023-03-27T00:52:58.677Z,98875.78
2023-03-27T00:56:05.786Z,98869.75
2023-03-27T00:59:15.874Z,98867.31
2023-03-27T01:02:19.631Z,98854.28
2023-03-27T01:05:23.410Z,98858.63
2023-03-27T01:08:29.360Z,98856.16
2023-03-27T01:11:45.332Z,98851.88
2023-03-27T01:14:58.225Z,98839.72
2023-03-27T01:18:17.118Z,98839.66
2023-03-27T01:22:00.555Z,98837.81
2023-03-27T01:25:10.745Z,98834.28
2023-03-27T01:28:41.487Z,98833.41
2023-03-27T01:32:06.375Z,98825.53
2023-03-27T01:35:27.600Z,98813.19
2023-03-27T01:38:53.376Z,98830.62
2023-03-27T01:42:06.985Z,98823.72
2023-03-27T01:45:22.553Z,98820.22
2023-03-27T01:48:40.753Z,98812.41
2023-03-27T01:51:54.894Z,98800.22
2023-03-27T01:55:05.034Z,98795.84
2023-03-27T01:58:14.489Z,98787.13
2023-03-27T02:01:28.339Z,98794.03
2023-03-27T02:04:41.139Z,98785.34
2023-03-27T02:07:53.228Z,98780.19
2023-03-27T02:10:59.520Z,98780.31
2023-03-27T02:14:12.403Z,98785.56
2023-03-27T02:17:20.579Z,98781.28
2023-03-27T02:20:24.352Z,98774.37
2023-03-27T02:23:27.370Z,98765.75
2023-03-27T02:26:30.630Z,98751.87
2023-03-27T02:29:48.091Z,98731.06
2023-03-27T02:33:03.280Z,98718.91
2023-03-27T02:36:21.265Z,98712.78
2023-03-27T02:39:42.497Z,98708.41
2023-03-27T02:42:53.037Z,98706.69
2023-03-27T02:46:09.586Z,98705.81
2023-03-27T02:49:20.089Z,98697.13
2023-03-27T02:52:48.144Z,98693.66
2023-03-27T02:55:55.187Z,98685.78
2023-03-27T02:59:10.371Z,98682.31
2023-03-27T03:02:26.196Z,98686.66
2023-03-27T03:05:30.004Z,98683.16
2023-03-27T03:08:38.724Z,98675.31
2023-03-27T03:11:48.743Z,98680.50
2023-03-27T03:14:52.120Z,98677.97
2023-03-27T03:17:59.276Z,98676.19
2023-03-27T03:21:04.860Z,98671.84
2023-03-27T03:24:08.884Z,98680.50
2023-03-27T03:27:14.621Z,98676.16
2023-03-27T03:30:19.493Z,98680.47
2023-03-27T03:33:23.074Z,98674.31
2023-03-27T03:36:30.865Z,98677.84
2023-03-27T03:39:33.999Z,98675.22
2023-03-27T03:42:52.331Z,98673.41
2023-03-27T03:45:57.243Z,98675.19
2023-03-27T03:49:00.938Z,98669.13
2023-03-27T03:52:05.890Z,98663.94
2023-03-27T03:55:11.947Z,98662.19
2023-03-27T03:58:15.684Z,98660.47
2023-03-27T04:01:21.105Z,98663.06
2023-03-27T04:04:26.273Z,98655.25
2023-03-27T04:07:31.593Z,98658.72
2023-03-27T04:10:41.446Z,98663.81
2023-03-27T04:13:46.380Z,98660.34
2023-03-27T04:16:52.514Z,98667.28
2023-03-27T04:19:56.105Z,98663.84
2023-03-27T04:23:02.502Z,98655.94
2023-03-27T04:26:06.407Z,98655.09
2023-03-27T04:29:10.993Z,98656.88
2023-03-27T04:32:19.484Z,98653.41
2023-03-27T04:35:27.084Z,98649.91
2023-03-27T04:38:41.164Z,98646.47
2023-03-27T04:41:50.439Z,98639.53
2023-03-27T04:44:55.380Z,98652.53
2023-03-27T04:48:01.652Z,98648.19
2023-03-27T04:51:13.192Z,98643.84
2023-03-27T04:54:24.392Z,98637.81
2023-03-27T04:57:32.056Z,98634.31
2023-03-27T05:00:36.681Z,98631.72
2023-03-27T05:03:46.214Z,98622.16
2023-03-27T05:06:52.113Z,98623.06
2023-03-27T05:09:55.883Z,98616.16
2023-03-27T05:13:04.226Z,98617.88
2023-03-27T05:16:12.692Z,98620.50
2023-03-27T05:19:20.423Z,98618.81
2023-03-27T05:22:25.051Z,98617.97
2023-03-27T05:25:31.741Z,98622.28
2023-03-27T05:28:36.783Z,98617.09
2023-03-27T05:31:43.040Z,98621.47
2023-03-27T05:34:50.936Z,98611.09
2023-03-27T05:37:56.232Z,98609.34
2023-03-27T05:41:02.539Z,98602.38
2023-03-27T05:44:07.779Z,98600.53
2023-03-27T05:47:13.124Z,98602.16
2023-03-27T05:50:18.209Z,98598.81
2023-03-27T05:53:27.950Z,98594.34
2023-03-27T05:56:36.318Z,98596.16
2023-03-27T05:59:42.191Z,98587.53
2023-03-27T06:03:02.157Z,98591.03
2023-03-27T06:06:12.117Z,98589.09
2023-03-27T06:09:18.136Z,98588.38
2023-03-27T06:12:28.061Z,98580.56
2023-03-27T06:15:34.399Z,98581.50
2023-03-27T06:18:38.430Z,98575.37
2023-03-27T06:21:42.423Z,98578.84
2023-03-27T06:24:46.824Z,98577.94
2023-03-27T06:27:55.238Z,98580.56
2023-03-27T06:31:01.201Z,98583.25
2023-03-27T06:34:05.706Z,98586.62
2023-03-27T06:37:13.209Z,98589.31
2023-03-27T06:40:32.195Z,98590.25
2023-03-27T06:43:42.549Z,98592.00
2023-03-27T06:46:46.044Z,98586.75
2023-03-27T06:49:56.403Z,98592.88
2023-03-27T06:53:03.050Z,98596.38
2023-03-27T06:56:16.002Z,98567.69
2023-03-27T06:59:21.537Z,98593.78
2023-03-27T07:02:31.188Z,98587.72
2023-03-27T07:05:45.564Z,98592.94
2023-03-27T07:08:51.751Z,98591.22
2023-03-27T07:11:59.413Z,98594.69
2023-03-27T07:15:09.097Z,98595.56
2023-03-27T07:18:15.351Z,98597.34
2023-03-27T07:21:25.006Z,98590.41
2023-03-27T07:24:29.581Z,98593.91
2023-03-27T07:27:36.173Z,98599.97
2023-03-27T07:30:48.157Z,98598.19
2023-03-27T07:33:58.459Z,98605.16
2023-03-27T07:37:05.206Z,98606.03
2023-03-27T07:40:13.898Z,98606.00
2023-03-27T07:43:19.178Z,98604.28
2023-03-27T07:46:24.391Z,98590.34
2023-03-27T07:49:39.722Z,98606.03
2023-03-27T07:52:46.658Z,98608.59
2023-03-27T07:55:54.313Z,98606.00
2023-03-27T07:59:08.097Z,98600.81
2023-03-27T08:02:13.938Z,98590.37
2023-03-27T08:05:19.321Z,98601.59
2023-03-27T08:08:29.232Z,98615.44
2023-03-27T08:11:44.342Z,98618.91
2023-03-27T08:14:48.522Z,98617.12
2023-03-27T08:18:00.511Z,98627.53
2023-03-27T08:21:11.861Z,98612.72
2023-03-27T08:24:18.741Z,98627.50
2023-03-27T08:27:32.132Z,98623.19
2023-03-27T08:30:38.512Z,98623.19
2023-03-27T08:33:43.595Z,98634.44
2023-03-27T08:36:54.187Z,98640.50
2023-03-27T08:39:59.205Z,98643.09
2023-03-27T08:43:08.173Z,98653.47
2023-03-27T08:46:25.094Z,98662.97
2023-03-27T08:49:44.797Z,98656.91
2023-03-27T08:52:51.150Z,98655.09
2023-03-27T08:55:57.376Z,98655.97
2023-03-27T08:59:12.343Z,98655.94
2023-03-27T09:02:36.261Z,98652.44
2023-03-27T09:06:02.816Z,98653.25
2023-03-27T09:09:19.817Z,98650.63
2023-03-27T09:12:45.182Z,98650.56
2023-03-27T09:16:11.161Z,98651.47
2023-03-27T09:19:35.157Z,98650.63
2023-03-27T09:22:44.519Z,98654.06
2023-03-27T09:25:56.193Z,98662.72
2023-03-27T09:29:28.080Z,98656.69
2023-03-27T09:32:43.201Z,98659.31
2023-03-27T09:35:50.131Z,98655.03
2023-03-27T09:38:58.777Z,98664.59
2023-03-27T09:42:18.256Z,98656.81
2023-03-27T09:45:33.090Z,98663.78
2023-03-27T09:48:50.642Z,98665.53
2023-03-27T09:51:57.110Z,98673.38
2023-03-27T09:55:37.016Z,98685.56
2023-03-27T09:58:46.381Z,98698.59
2023-03-27T10:02:00.180Z,98697.66
2023-03-27T10:05:17.404Z,98695.09
2023-03-27T10:08:42.248Z,98697.72
2023-03-27T10:12:00.072Z,98702.06
2023-03-27T10:15:40.112Z,98705.56
2023-03-27T10:18:48.165Z,98713.41
2023-03-27T10:21:56.149Z,98715.09
2023-03-27T10:25:05.602Z,98718.56
2023-03-27T10:28:38.033Z,98716.88
2023-03-27T10:31:57.320Z,98726.38
2023-03-27T10:35:06.170Z,98722.84
2023-03-27T10:38:23.121Z,98734.25
2023-03-27T10:41:31.105Z,98732.41
2023-03-27T10:44:38.495Z,98733.25
2023-03-27T10:47:51.210Z,98739.28
2023-03-27T10:51:04.101Z,98740.16
2023-03-27T10:54:29.487Z,98741.84
2023-03-27T10:57:40.215Z,98735.75
2023-03-27T11:00:54.280Z,98744.25
2023-03-27T11:04:21.448Z,98745.13
2023-03-27T11:07:35.185Z,98736.44
2023-03-27T11:10:44.105Z,98725.12
2023-03-27T11:14:03.096Z,98744.31
2023-03-27T11:17:22.229Z,98752.13
2023-03-27T11:21:05.228Z,98760.84
2023-03-27T11:24:34.217Z,98769.56
2023-03-27T11:27:54.840Z,98766.09
2023-03-27T11:31:32.761Z,98777.41
2023-03-27T11:35:01.950Z,98773.00
2023-03-27T11:38:19.167Z,98769.53
2023-03-27T11:41:30.309Z,98760.78
2023-03-27T11:44:38.498Z,98770.47
2023-03-27T11:48:10.971Z,98776.50
2023-03-27T11:51:31.472Z,98775.66
2023-03-27T11:54:54.631Z,98771.44
2023-03-27T11:58:27.228Z,98761.84
2023-03-27T12:02:07.209Z,98766.16
2023-03-27T12:05:37.425Z,98762.28
2023-03-27T12:09:06.114Z,98772.00
2023-03-27T12:12:53.079Z,98778.06
2023-03-27T12:16:09.149Z,98778.06
2023-03-27T12:19:38.498Z,98784.19
2023-03-27T12:23:03.154Z,98780.63
2023-03-27T12:26:34.383Z,98781.41
2023-03-27T12:30:00.653Z,98786.66
2023-03-27T12:33:40.005Z,98788.44
2023-03-27T12:36:48.396Z,98797.09
2023-03-27T12:39:59.172Z,98798.88
2023-03-27T12:43:07.286Z,98804.09
2023-03-27T12:46:24.256Z,98801.47
2023-03-27T12:49:40.574Z,98815.41
2023-03-27T12:52:53.400Z,98815.38
2023-03-27T12:56:26.270Z,98824.09
2023-03-27T12:59:50.838Z,98822.28
2023-03-27T13:02:56.707Z,98828.41
2023-03-27T13:06:41.256Z,98826.63
2023-03-27T13:10:06.198Z,98851.78
2023-03-27T13:13:33.079Z,98874.34
2023-03-27T13:16:51.131Z,98879.25
2023-03-27T13:20:24.714Z,98890.44
2023-03-27T13:24:08.738Z,98898.81
2023-03-27T13:27:54.361Z,98922.00
2023-03-27T13:31:00.483Z,98932.13
2023-03-27T13:34:39.475Z,98935.16
2023-03-27T13:37:49.800Z,98932.22
2023-03-27T13:41:47.022Z,98940.81
2023-03-27T13:45:25.750Z,98947.50
2023-03-27T13:48:52.153Z,98966.97
2023-03-27T13:52:10.113Z,98977.09
2023-03-27T13:55:35.154Z,98988.37
2023-03-27T13:59:28.927Z,98995.25
2023-03-27T14:03:04.372Z,98990.78
2023-03-27T14:06:39.161Z,99000.94
2023-03-27T14:10:16.129Z,99012.63
2023-03-27T14:13:42.187Z,99031.84
2023-03-27T14:17:12.146Z,99044.50
2023-03-27T14:20:30.116Z,99065.41
2023-03-27T14:24:00.141Z,99083.28
2023-03-27T14:27:12.202Z,99107.41
2023-03-27T14:30:49.132Z,99116.69
2023-03-27T14:34:11.086Z,99124.37
2023-03-27T14:37:42.252Z,99152.56
2023-03-27T14:41:00.186Z,99147.22
2023-03-27T14:44:09.083Z,99148.53
2023-03-27T14:47:25.196Z,99166.47
2023-03-27T14:50:42.154Z,99186.28
2023-03-27T14:53:51.467Z,99194.94
2023-03-27T14:57:18.144Z,99203.72
2023-03-27T15:00:28.501Z,99222.81
2023-03-27T15:03:46.575Z,99228.94
2023-03-27T15:07:14.781Z,99228.03
2023-03-27T15:10:29.874Z,99224.59
2023-03-27T15:13:44.299Z,99239.63
2023-03-27T15:17:00.133Z,99242.91
2023-03-27T15:20:19.113Z,99261.31
2023-03-27T15:23:43.021Z,99253.78
2023-03-27T15:26:53.524Z,99273.97
2023-03-27T15:30:08.286Z,99278.94
2023-03-27T15:33:29.041Z,99295.00
2023-03-27T15:36:39.133Z,99313.81
2023-03-27T15:40:33.082Z,99319.22
2023-03-27T15:43:36.555Z,99319.16
2023-03-27T15:47:08.048Z,99349.84
2023-03-27T15:50:20.090Z,99357.28
2023-03-27T15:53:39.126Z,99364.38
2023-03-27T15:56:53.263Z,99365.16
2023-03-27T16:00:15.369Z,99386.66
2023-03-27T16:03:27.783Z,99396.00
2023-03-27T16:06:42.140Z,99415.56
2023-03-27T16:10:04.119Z,99424.13
2023-03-27T16:13:32.522Z,99417.69
2023-03-27T16:16:38.110Z,99417.50
2023-03-27T16:20:05.135Z,99437.25
2023-03-27T16:23:15.618Z,99436.72
2023-03-27T16:26:26.700Z,99450.72
2023-03-27T16:29:32.628Z,99479.12
2023-03-27T16:32:39.091Z,99487.81
2023-03-27T16:35:45.272Z,99495.50
2023-03-27T16:38:52.169Z,99501.44
2023-03-27T16:41:57.296Z,99516.13
2023-03-27T16:45:11.091Z,99497.59
2023-03-27T16:48:19.053Z,99529.72
2023-03-27T16:51:39.983Z,99537.22
2023-03-27T16:54:59.006Z,99540.75
2023-03-27T16:58:02.740Z,99557.69
2023-03-27T17:01:20.461Z,99574.03
2023-03-27T17:04:37.779Z,99561.91
2023-03-27T17:07:48.585Z,99581.06
2023-03-27T17:10:55.117Z,99580.00
2023-03-27T17:14:02.011Z,99612.25
2023-03-27T17:17:14.986Z,99619.19
2023-03-27T17:20:19.097Z,99639.09
2023-03-27T17:23:26.389Z,99628.84
2023-03-27T17:26:36.062Z,99649.38
2023-03-27T17:29:42.594Z,99652.16
2023-03-27T17:32:54.340Z,99658.00
2023-03-27T17:36:10.151Z,99665.75
2023-03-27T17:39:23.110Z,99671.69
2023-03-27T17:42:39.630Z,99676.31
2023-03-27T17:45:55.230Z,99694.72
2023-03-27T17:49:15.084Z,99698.94
2023-03-27T17:52:33.974Z,99706.56
2023-03-27T17:55:42.742Z,99720.16
2023-03-27T17:59:08.074Z,99718.25
2023-03-27T18:02:23.370Z,99731.03
2023-03-27T18:05:31.129Z,99720.28
2023-03-27T18:08:44.139Z,99745.16
2023-03-27T18:11:53.118Z,99726.53
2023-03-27T18:15:03.068Z,99752.19
2023-03-27T18:18:09.579Z,99771.06
2023-03-27T18:21:28.167Z,99786.28
2023-03-27T18:24:33.539Z,99795.53
2023-03-27T18:27:46.121Z,99797.97
2023-03-27T18:31:05.198Z,99797.75
2023-03-27T18:34:20.659Z,99812.34
2023-03-27T18:37:26.021Z,99825.25
2023-03-27T18:40:36.057Z,99819.22
2023-03-27T18:43:40.332Z,99836.16
2023-03-27T18:46:45.105Z,99829.03
2023-03-27T18:50:04.017Z,99849.28
2023-03-27T18:53:21.038Z,99830.63
2023-03-27T18:56:28.077Z,99855.09
2023-03-27T18:59:32.066Z,99861.81
2023-03-27T19:02:42.257Z,99848.03
2023-03-27T19:05:49.090Z,99859.06
2023-03-27T19:09:03.067Z,99858.13
2023-03-27T19:12:09.080Z,99864.16
2023-03-27T19:15:27.116Z,99860.69
2023-03-27T19:18:36.086Z,99870.94
2023-03-27T19:21:42.127Z,99854.69
2023-03-27T19:25:04.496Z,99869.97
2023-03-27T19:28:09.690Z,99869.00
2023-03-27T19:31:15.825Z,99863.03
2023-03-27T19:34:42.040Z,99884.31
2023-03-27T19:37:51.030Z,99878.94
2023-03-27T19:40:57.080Z,99875.31
2023-03-27T19:44:02.531Z,99891.97
2023-03-27T19:47:10.114Z,99898.84
2023-03-27T19:50:16.092Z,99902.16
2023-03-27T19:53:35.156Z,99921.72
2023-03-27T19:56:41.053Z,99930.28
2023-03-27T19:59:53.165Z,99935.44
2023-03-27T20:03:17.093Z,99948.31
2023-03-27T20:06:26.175Z,99940.31
2023-03-27T20:09:29.892Z,99946.19
2023-03-27T20:12:42.435Z,99956.19
2023-03-27T20:15:58.185Z,99970.13
2023-03-27T20:19:14.238Z,99971.50
2023-03-27T20:22:26.949Z,99966.59
2023-03-27T20:25:36.094Z,99982.94
2023-03-27T20:28:41.370Z,99987.69
2023-03-27T20:31:49.367Z,99988.50
2023-03-27T20:35:16.527Z,99998.88
2023-03-27T20:38:38.364Z,99986.47
2023-03-27T20:41:43.346Z,99997.66
2023-03-27T20:44:58.648Z,99991.88
2023-03-27T20:48:09.153Z,99987.69
2023-03-27T20:51:26.270Z,99997.75
2023-03-27T20:54:37.015Z,100001.78
2023-03-27T20:57:39.984Z,100010.41
2023-03-27T21:00:46.047Z,100013.78
2023-03-27T21:03:50.117Z,100019.47
2023-03-27T21:06:56.047Z,100025.28
2023-03-27T21:10:01.147Z,100032.12
2023-03-27T21:13:06.809Z,100035.41
2023-03-27T21:16:10.558Z,100042.97
2023-03-27T21:19:13.341Z,100048.41
2023-03-27T21:22:19.032Z,100040.34
2023-03-27T21:25:23.414Z,100047.09
2023-03-27T21:28:27.115Z,100046.03
2023-03-27T21:31:30.839Z,100033.59
2023-03-27T21:34:35.312Z,100051.91
2023-03-27T21:37:40.007Z,100051.63
2023-03-27T21:40:49.096Z,100054.72
2023-03-27T21:43:52.744Z,100053.84
2023-03-27T21:46:55.939Z,100054.56
2023-03-27T21:50:00.067Z,100055.28
2023-03-27T21:53:03.037Z,100060.25
2023-03-27T21:56:06.800Z,100059.62
2023-03-27T21:59:10.320Z,100066.03
2023-03-27T22:02:13.141Z,100062.22
2023-03-27T22:05:17.690Z,100055.91
2023-03-27T22:08:21.677Z,100075.97
2023-03-27T22:11:27.010Z,100075.78
2023-03-27T22:14:30.241Z,100085.03
2023-03-27T22:17:37.309Z,100077.13
2023-03-27T22:20:44.798Z,100092.47
2023-03-27T22:23:51.605Z,100103.47
2023-03-27T22:26:54.536Z,100098.16
2023-03-27T22:29:57.798Z,100109.44
2023-03-27T22:33:00.805Z,100106.94
2023-03-27T22:36:06.417Z,100105.25
2023-03-27T22:39:10.688Z,100123.97
2023-03-27T22:42:13.933Z,100128.16
2023-03-27T22:45:16.786Z,100128.84
2023-03-27T22:48:20.093Z,100145.91
2023-03-27T22:51:23.279Z,100150.94
2023-03-27T22:54:28.012Z,100147.41
2023-03-27T22:57:30.865Z,100158.50
2023-03-27T23:00:35.982Z,100164.34
2023-03-27T23:03:39.049Z,100164.84
2023-03-27T23:06:41.961Z,100166.31
2023-03-27T23:09:46.116Z,100182.38
2023-03-27T23:12:49.563Z,100183.97
2023-03-27T23:15:52.429Z,100181.19
2023-03-27T23:18:55.524Z,100193.53
2023-03-27T23:21:59.551Z,100195.12
2023-03-27T23:25:02.466Z,100204.44
2023-03-27T23:28:07.334Z,100211.97
2023-03-27T23:31:14.980Z,100212.66
2023-03-27T23:34:17.473Z,100213.66
2023-03-27T23:37:21.041Z,100228.28
2023-03-27T23:40:27.021Z,100224.34
2023-03-27T23:43:31.333Z,100241.28
2023-03-27T23:46:33.897Z,100240.41
2023-03-27T23:49:37.197Z,100242.59
2023-03-27T23:52:40.035Z,100247.53
2023-03-27T23:55:44.434Z,100249.12
2023-03-27T23:58:47.200Z,100239.91
